^^
Station Historical Data
Daily Summary for March 8, 2018 Units:  Both    English   Metric
« Previous Day
Next Day »
Daily Weekly Monthly Yearly Custom
  High: Low: Average:
Temperature: TemperatureF °F /  -17.8 °C 57.7 °F /  14.3 °C 68.6 °F /  20.3 °C
Dew Point: DewpointF °F /  -17.8 °C 55.0 °F /  12.8 °C 57.7 °F /  14.3 °C
Humidity: Humidity% 53% 69%
Wind Speed: WindSpeedMPHmph /  0km/h - -13.4mph /  -21.6km/h
Wind Gust: WindSpeedGustMPHmph /  0km/h - -
Wind- -
Pressure: PressureIn in /  0 hPa 29.67 in /  1004.6 hPa -
Precipitation: 0.00 in /  0 mm    
Historical Graphs
 
 
Tabular Data for March 8, 2018
Time Temperature Dew Point Pressure Wind Wind Speed Wind Gust Humidity Rainfall Rate (Hourly) solar Conditions
TemperatureF °F /  -17.8 °C DewpointF °F /  -17.8 °C PressureInin /  0hPa Calm     Humidity% HourlyPrecipInin /  0mm SoftwareType W/m2 Conditions
07:44 57.7 °F /  14.3 °C 55.8 °F /  13.2 °C 29.79in /  1008.7hPa North -999.9mph /  -1609.1km/h -999.0mph /  -1607.7km/h 93% 0.00in /  0mm meteobridge W/m2
07:50 57.9 °F /  14.4 °C 55.9 °F /  13.3 °C 29.79in /  1008.7hPa Calm     93% 0.00in /  0mm meteobridge W/m2
07:56 57.9 °F /  14.4 °C 55.9 °F /  13.3 °C 29.79in /  1008.7hPa Calm     93% 0.00in /  0mm meteobridge W/m2
08:02 57.9 °F /  14.4 °C 55.9 °F /  13.3 °C 29.79in /  1008.7hPa South 2.9mph /  4.7km/h 5.0mph /  8km/h 93% 0.00in /  0mm meteobridge W/m2
08:09 58.5 °F /  14.7 °C 56.5 °F /  13.6 °C 29.79in /  1008.7hPa Calm   4.0mph /  6.4km/h 93% 0.00in /  0mm meteobridge W/m2
08:15 58.8 °F /  14.9 °C 56.8 °F /  13.8 °C 29.79in /  1008.7hPa South 2.0mph /  3.2km/h 3.0mph /  4.8km/h 93% 0.00in /  0mm meteobridge W/m2
08:21 59.4 °F /  15.2 °C 57.0 °F /  13.9 °C 29.79in /  1008.7hPa South 4.0mph /  6.4km/h 4.0mph /  6.4km/h 92% 0.00in /  0mm meteobridge W/m2
08:27 59.9 °F /  15.5 °C 57.6 °F /  14.2 °C 29.80in /  1009hPa South 2.9mph /  4.7km/h 6.0mph /  9.7km/h 92% 0.00in /  0mm meteobridge W/m2
08:33 60.4 °F /  15.8 °C 57.7 °F /  14.3 °C 29.80in /  1009hPa SSE 0.9mph /  1.4km/h 7.0mph /  11.3km/h 91% 0.00in /  0mm meteobridge W/m2
08:39 61.0 °F /  16.1 °C 58.1 °F /  14.5 °C 29.80in /  1009hPa SSE 4.0mph /  6.4km/h 9.0mph /  14.5km/h 90% 0.00in /  0mm meteobridge W/m2
08:45 60.8 °F /  16 °C 57.6 °F /  14.2 °C 29.80in /  1009hPa SSE 2.9mph /  4.7km/h 7.0mph /  11.3km/h 89% 0.00in /  0mm meteobridge W/m2
08:51 61.0 °F /  16.1 °C 57.7 °F /  14.3 °C 29.80in /  1009hPa South 2.9mph /  4.7km/h 6.0mph /  9.7km/h 89% 0.00in /  0mm meteobridge W/m2
08:57 61.3 °F /  16.3 °C 57.7 °F /  14.3 °C 29.80in /  1009hPa SSW 4.0mph /  6.4km/h 6.0mph /  9.7km/h 88% 0.00in /  0mm meteobridge W/m2
09:03 61.3 °F /  16.3 °C 57.7 °F /  14.3 °C 29.80in /  1009hPa South 2.0mph /  3.2km/h 6.0mph /  9.7km/h 88% 0.00in /  0mm meteobridge W/m2
09:09 61.9 °F /  16.6 °C 58.3 °F /  14.6 °C 29.80in /  1009hPa SSE 4.0mph /  6.4km/h 8.0mph /  12.9km/h 88% 0.00in /  0mm meteobridge W/m2
09:15 62.2 °F /  16.8 °C 58.3 °F /  14.6 °C 29.80in /  1009hPa South 4.0mph /  6.4km/h 7.0mph /  11.3km/h 87% 0.00in /  0mm meteobridge W/m2
09:22 62.2 °F /  16.8 °C 58.3 °F /  14.6 °C 29.81in /  1009.4hPa SSE 0.9mph /  1.4km/h 5.0mph /  8km/h 87% 0.00in /  0mm meteobridge W/m2
09:28 62.2 °F /  16.8 °C 57.9 °F /  14.4 °C 29.81in /  1009.4hPa South 2.9mph /  4.7km/h 4.0mph /  6.4km/h 86% 0.00in /  0mm meteobridge W/m2
09:34 62.2 °F /  16.8 °C 57.7 °F /  14.3 °C 29.81in /  1009.4hPa South 0.9mph /  1.4km/h 3.0mph /  4.8km/h 85% 0.00in /  0mm meteobridge W/m2
09:40 62.8 °F /  17.1 °C 58.3 °F /  14.6 °C 29.81in /  1009.4hPa Calm     85% 0.00in /  0mm meteobridge W/m2
09:46 62.8 °F /  17.1 °C 58.3 °F /  14.6 °C 29.81in /  1009.4hPa WSW 4.0mph /  6.4km/h 6.0mph /  9.7km/h 85% 0.00in /  0mm meteobridge W/m2
09:52 63.0 °F /  17.2 °C 58.5 °F /  14.7 °C 29.81in /  1009.4hPa Calm   2.0mph /  3.2km/h 85% 0.00in /  0mm meteobridge W/m2
09:58 63.5 °F /  17.5 °C 58.6 °F /  14.8 °C 29.81in /  1009.4hPa SW 0.9mph /  1.4km/h 3.0mph /  4.8km/h 84% 0.00in /  0mm meteobridge W/m2
10:05 64.9 °F /  18.3 °C 59.4 °F /  15.2 °C 29.81in /  1009.4hPa SW 2.9mph /  4.7km/h 5.0mph /  8km/h 82% 0.00in /  0mm meteobridge W/m2
10:11 66.4 °F /  19.1 °C 60.1 °F /  15.6 °C 29.82in /  1009.7hPa Calm   4.0mph /  6.4km/h 80% 0.00in /  0mm meteobridge W/m2
10:17 68.2 °F /  20.1 °C 60.3 °F /  15.7 °C 29.82in /  1009.7hPa NW 0.9mph /  1.4km/h 3.0mph /  4.8km/h 76% 0.00in /  0mm meteobridge W/m2
10:23 68.9 °F /  20.5 °C 59.9 °F /  15.5 °C 29.82in /  1009.7hPa NNW 2.0mph /  3.2km/h 4.0mph /  6.4km/h 73% 0.00in /  0mm meteobridge W/m2
10:29 68.0 °F /  20 °C 58.6 °F /  14.8 °C 29.82in /  1009.7hPa Calm   2.0mph /  3.2km/h 72% 0.00in /  0mm meteobridge W/m2
10:35 67.8 °F /  19.9 °C 59.2 °F /  15.1 °C 29.82in /  1009.7hPa NNE 0.9mph /  1.4km/h 4.0mph /  6.4km/h 74% 0.00in /  0mm meteobridge W/m2
10:42 67.5 °F /  19.7 °C 58.8 °F /  14.9 °C 29.81in /  1009.4hPa NNE 4.9mph /  7.9km/h 5.0mph /  8km/h 74% 0.00in /  0mm meteobridge W/m2
10:48 66.9 °F /  19.4 °C 58.8 °F /  14.9 °C 29.81in /  1009.4hPa NNE 2.9mph /  4.7km/h 6.0mph /  9.7km/h 75% 0.00in /  0mm meteobridge W/m2
10:54 67.1 °F /  19.5 °C 58.8 °F /  14.9 °C 29.82in /  1009.7hPa SE 4.0mph /  6.4km/h 6.0mph /  9.7km/h 75% 0.00in /  0mm meteobridge W/m2
11:00 66.7 °F /  19.3 °C 58.1 °F /  14.5 °C 29.81in /  1009.4hPa SE 2.0mph /  3.2km/h 2.0mph /  3.2km/h 74% 0.00in /  0mm meteobridge W/m2
11:06 65.8 °F /  18.8 °C 57.7 °F /  14.3 °C 29.81in /  1009.4hPa SSW 2.9mph /  4.7km/h 5.0mph /  8km/h 75% 0.00in /  0mm meteobridge W/m2
11:12 65.8 °F /  18.8 °C 58.5 °F /  14.7 °C 29.81in /  1009.4hPa Calm   5.0mph /  8km/h 77% 0.00in /  0mm meteobridge W/m2
11:18 66.2 °F /  19 °C 58.5 °F /  14.7 °C 29.82in /  1009.7hPa Calm   3.0mph /  4.8km/h 76% 0.00in /  0mm meteobridge W/m2
11:24 66.6 °F /  19.2 °C 58.8 °F /  14.9 °C 29.81in /  1009.4hPa South 2.9mph /  4.7km/h 5.0mph /  8km/h 76% 0.00in /  0mm meteobridge W/m2
11:30 66.7 °F /  19.3 °C 58.6 °F /  14.8 °C 29.81in /  1009.4hPa SSE 4.0mph /  6.4km/h 4.0mph /  6.4km/h 75% 0.00in /  0mm meteobridge W/m2
11:37 67.3 °F /  19.6 °C 59.0 °F /  15 °C 29.81in /  1009.4hPa SSE 0.9mph /  1.4km/h 3.0mph /  4.8km/h 75% 0.00in /  0mm meteobridge W/m2
11:43 67.1 °F /  19.5 °C 58.5 °F /  14.7 °C 29.80in /  1009hPa Calm   2.0mph /  3.2km/h 74% 0.00in /  0mm meteobridge W/m2
11:49 68.2 °F /  20.1 °C 58.8 °F /  14.9 °C 29.80in /  1009hPa SSE 2.0mph /  3.2km/h 2.0mph /  3.2km/h 72% 0.00in /  0mm meteobridge W/m2
11:55 68.2 °F /  20.1 °C 58.1 °F /  14.5 °C 29.81in /  1009.4hPa SSE 0.9mph /  1.4km/h 3.0mph /  4.8km/h 70% 0.00in /  0mm meteobridge W/m2
12:02 68.4 °F /  20.2 °C 58.3 °F /  14.6 °C 29.80in /  1009hPa Calm     70% 0.00in /  0mm meteobridge W/m2
12:08 69.3 °F /  20.7 °C 59.5 °F /  15.3 °C 29.80in /  1009hPa South 4.9mph /  7.9km/h 6.0mph /  9.7km/h 71% 0.00in /  0mm meteobridge W/m2
12:14 68.4 °F /  20.2 °C 58.6 °F /  14.8 °C 29.80in /  1009hPa Calm   5.0mph /  8km/h 71% 0.00in /  0mm meteobridge W/m2
12:20 69.4 °F /  20.8 °C 59.2 °F /  15.1 °C 29.80in /  1009hPa South 0.9mph /  1.4km/h 3.0mph /  4.8km/h 70% 0.00in /  0mm meteobridge W/m2
12:26 70.3 °F /  21.3 °C 59.4 °F /  15.2 °C 29.80in /  1009hPa South 0.9mph /  1.4km/h 1.0mph /  1.6km/h 68% 0.00in /  0mm meteobridge W/m2
12:33 70.0 °F /  21.1 °C 59.0 °F /  15 °C 29.79in /  1008.7hPa Calm   2.0mph /  3.2km/h 68% 0.00in /  0mm meteobridge W/m2
12:39 69.4 °F /  20.8 °C 59.2 °F /  15.1 °C 29.79in /  1008.7hPa SSE 4.0mph /  6.4km/h 7.0mph /  11.3km/h 70% 0.00in /  0mm meteobridge W/m2
12:45 68.7 °F /  20.4 °C 59.0 °F /  15 °C 29.79in /  1008.7hPa SSE 2.0mph /  3.2km/h 2.0mph /  3.2km/h 71% 0.00in /  0mm meteobridge W/m2
12:51 68.2 °F /  20.1 °C 58.8 °F /  14.9 °C 29.79in /  1008.7hPa SE 2.0mph /  3.2km/h 2.0mph /  3.2km/h 72% 0.00in /  0mm meteobridge W/m2
12:57 68.0 °F /  20 °C 59.0 °F /  15 °C 29.78in /  1008.4hPa SE 2.0mph /  3.2km/h 4.0mph /  6.4km/h 73% 0.00in /  0mm meteobridge W/m2
13:03 68.2 °F /  20.1 °C 59.2 °F /  15.1 °C 29.78in /  1008.4hPa Calm   3.0mph /  4.8km/h 73% 0.00in /  0mm meteobridge W/m2
13:10 69.3 °F /  20.7 °C 59.9 °F /  15.5 °C 29.78in /  1008.4hPa Calm   1.0mph /  1.6km/h 72% 0.00in /  0mm meteobridge W/m2
13:16 70.3 °F /  21.3 °C 60.1 °F /  15.6 °C 29.77in /  1008hPa Calm   2.0mph /  3.2km/h 70% 0.00in /  0mm meteobridge W/m2
13:22 70.2 °F /  21.2 °C 59.5 °F /  15.3 °C 29.77in /  1008hPa Calm     69% 0.00in /  0mm meteobridge W/m2
13:28 70.3 °F /  21.3 °C 59.7 °F /  15.4 °C 29.77in /  1008hPa North 4.0mph /  6.4km/h 4.0mph /  6.4km/h 69% 0.00in /  0mm meteobridge W/m2
13:34 70.2 °F /  21.2 °C 59.2 °F /  15.1 °C 29.76in /  1007.7hPa NNW 2.0mph /  3.2km/h 7.0mph /  11.3km/h 68% 0.00in /  0mm meteobridge W/m2
13:40 70.0 °F /  21.1 °C 59.4 °F /  15.2 °C 29.76in /  1007.7hPa NNW 2.9mph /  4.7km/h 4.0mph /  6.4km/h 69% 0.00in /  0mm meteobridge W/m2
13:47 71.6 °F /  22 °C 60.4 °F /  15.8 °C 29.76in /  1007.7hPa NNE 2.0mph /  3.2km/h 4.0mph /  6.4km/h 68% 0.00in /  0mm meteobridge W/m2
13:53 72.3 °F /  22.4 °C 59.9 °F /  15.5 °C 29.76in /  1007.7hPa ESE 0.9mph /  1.4km/h 3.0mph /  4.8km/h 65% 0.00in /  0mm meteobridge W/m2
13:59 73.6 °F /  23.1 °C 60.6 °F /  15.9 °C 29.75in /  1007.3hPa Calm   1.0mph /  1.6km/h 64% 0.00in /  0mm meteobridge W/m2
14:05 74.8 °F /  23.8 °C 61.0 °F /  16.1 °C 29.75in /  1007.3hPa ESE 0.9mph /  1.4km/h 4.0mph /  6.4km/h 62% 0.00in /  0mm meteobridge W/m2
14:11 73.9 °F /  23.3 °C 60.1 °F /  15.6 °C 29.74in /  1007hPa ESE 0.9mph /  1.4km/h 3.0mph /  4.8km/h 62% 0.00in /  0mm meteobridge W/m2
14:17 73.2 °F /  22.9 °C 60.3 °F /  15.7 °C 29.74in /  1007hPa ESE 2.9mph /  4.7km/h 4.0mph /  6.4km/h 64% 0.00in /  0mm meteobridge W/m2
14:23 73.4 °F /  23 °C 60.1 °F /  15.6 °C 29.74in /  1007hPa South 2.0mph /  3.2km/h 6.0mph /  9.7km/h 63% 0.00in /  0mm meteobridge W/m2
14:29 73.2 °F /  22.9 °C 59.4 °F /  15.2 °C 29.74in /  1007hPa South 6.0mph /  9.7km/h 10.0mph /  16.1km/h 62% 0.00in /  0mm meteobridge W/m2
14:35 73.2 °F /  22.9 °C 59.4 °F /  15.2 °C 29.73in /  1006.7hPa South 8.9mph /  14.3km/h 11.0mph /  17.7km/h 62% 0.00in /  0mm meteobridge W/m2
14:42 73.6 °F /  23.1 °C 59.4 °F /  15.2 °C 29.73in /  1006.7hPa SSE 6.9mph /  11.1km/h 10.0mph /  16.1km/h 61% 0.00in /  0mm meteobridge W/m2
14:48 73.0 °F /  22.8 °C 58.8 °F /  14.9 °C 29.72in /  1006.3hPa SSE 4.0mph /  6.4km/h 6.0mph /  9.7km/h 61% 0.00in /  0mm meteobridge W/m2
14:54 73.6 °F /  23.1 °C 61.2 °F /  16.2 °C 29.72in /  1006.3hPa SSE 4.9mph /  7.9km/h 7.0mph /  11.3km/h 65% 0.00in /  0mm meteobridge W/m2
15:00 75.0 °F /  23.9 °C 59.2 °F /  15.1 °C 29.72in /  1006.3hPa South 11.0mph /  17.7km/h 14.0mph /  22.5km/h 58% 0.00in /  0mm meteobridge W/m2
15:06 75.0 °F /  23.9 °C 58.3 °F /  14.6 °C 29.72in /  1006.3hPa SSW 6.9mph /  11.1km/h 11.0mph /  17.7km/h 56% 0.00in /  0mm meteobridge W/m2
15:12 75.0 °F /  23.9 °C 59.7 °F /  15.4 °C 29.71in /  1006hPa SE 11.0mph /  17.7km/h 11.0mph /  17.7km/h 59% 0.00in /  0mm meteobridge W/m2
15:18 75.7 °F /  24.3 °C 60.4 °F /  15.8 °C 29.71in /  1006hPa SSE 6.0mph /  9.7km/h 13.0mph /  20.9km/h 59% 0.00in /  0mm meteobridge W/m2
15:24 74.1 °F /  23.4 °C 58.8 °F /  14.9 °C 29.70in /  1005.6hPa SSE 2.0mph /  3.2km/h 3.0mph /  4.8km/h 59% 0.00in /  0mm meteobridge W/m2
15:31 74.1 °F /  23.4 °C 58.5 °F /  14.7 °C 29.70in /  1005.6hPa SSW 6.0mph /  9.7km/h 12.0mph /  19.3km/h 58% 0.00in /  0mm meteobridge W/m2
15:37 75.6 °F /  24.2 °C 58.3 °F /  14.6 °C 29.70in /  1005.6hPa SSE 12.1mph /  19.5km/h 12.1mph /  19.5km/h 55% 0.00in /  0mm meteobridge W/m2
15:43 76.1 °F /  24.5 °C 59.7 °F /  15.4 °C 29.70in /  1005.6hPa SSW 10.1mph /  16.3km/h 14.0mph /  22.5km/h 57% 0.00in /  0mm meteobridge W/m2
15:49 75.6 °F /  24.2 °C 58.8 °F /  14.9 °C 29.70in /  1005.6hPa South 4.9mph /  7.9km/h 10.0mph /  16.1km/h 56% 0.00in /  0mm meteobridge W/m2
15:55 75.6 °F /  24.2 °C 59.7 °F /  15.4 °C 29.70in /  1005.6hPa SSE 4.0mph /  6.4km/h 10.0mph /  16.1km/h 58% 0.00in /  0mm meteobridge W/m2
16:01 74.8 °F /  23.8 °C 59.0 °F /  15 °C 29.70in /  1005.6hPa SE 8.9mph /  14.3km/h 13.0mph /  20.9km/h 58% 0.00in /  0mm meteobridge W/m2
16:07 74.1 °F /  23.4 °C 58.5 °F /  14.7 °C 29.69in /  1005.3hPa South 10.1mph /  16.3km/h 16.0mph /  25.7km/h 58% 0.00in /  0mm meteobridge W/m2
16:13 74.1 °F /  23.4 °C 57.9 °F /  14.4 °C 29.69in /  1005.3hPa South 8.1mph /  13km/h 13.0mph /  20.9km/h 57% 0.00in /  0mm meteobridge W/m2
16:20 74.1 °F /  23.4 °C 57.4 °F /  14.1 °C 29.69in /  1005.3hPa South 13.0mph /  20.9km/h 13.0mph /  20.9km/h 56% 0.00in /  0mm meteobridge W/m2
16:26 73.0 °F /  22.8 °C 57.4 °F /  14.1 °C 29.69in /  1005.3hPa SSE 6.0mph /  9.7km/h 12.0mph /  19.3km/h 58% 0.00in /  0mm meteobridge W/m2
16:32 74.3 °F /  23.5 °C 58.1 °F /  14.5 °C 29.69in /  1005.3hPa South 4.9mph /  7.9km/h 12.0mph /  19.3km/h 57% 0.00in /  0mm meteobridge W/m2
16:38 74.5 °F /  23.6 °C 58.3 °F /  14.6 °C 29.68in /  1005hPa South 14.1mph /  22.7km/h 14.1mph /  22.7km/h 57% 0.00in /  0mm meteobridge W/m2
16:44 75.0 °F /  23.9 °C 57.7 °F /  14.3 °C 29.68in /  1005hPa SSE 8.1mph /  13km/h 11.0mph /  17.7km/h 55% 0.00in /  0mm meteobridge W/m2
16:50 75.4 °F /  24.1 °C 57.0 °F /  13.9 °C 29.68in /  1005hPa SSE 4.9mph /  7.9km/h 11.0mph /  17.7km/h 53% 0.00in /  0mm meteobridge W/m2
16:57 75.4 °F /  24.1 °C 57.6 °F /  14.2 °C 29.68in /  1005hPa SSE 4.9mph /  7.9km/h 11.0mph /  17.7km/h 54% 0.00in /  0mm meteobridge W/m2
17:03 74.8 °F /  23.8 °C 57.0 °F /  13.9 °C 29.67in /  1004.6hPa South 4.9mph /  7.9km/h 11.0mph /  17.7km/h 54% 0.00in /  0mm meteobridge W/m2
17:09 74.5 °F /  23.6 °C 56.7 °F /  13.7 °C 29.67in /  1004.6hPa South 4.0mph /  6.4km/h 7.0mph /  11.3km/h 54% 0.00in /  0mm meteobridge W/m2
17:15 74.8 °F /  23.8 °C 56.5 °F /  13.6 °C 29.67in /  1004.6hPa SSE 10.1mph /  16.3km/h 11.0mph /  17.7km/h 53% 0.00in /  0mm meteobridge W/m2
17:21 74.7 °F /  23.7 °C 56.5 °F /  13.6 °C 29.67in /  1004.6hPa SSE 4.9mph /  7.9km/h 11.0mph /  17.7km/h 53% 0.00in /  0mm meteobridge W/m2
17:27 74.7 °F /  23.7 °C 56.8 °F /  13.8 °C 29.67in /  1004.6hPa SSE 4.0mph /  6.4km/h 10.0mph /  16.1km/h 54% 0.00in /  0mm meteobridge W/m2
17:33 74.1 °F /  23.4 °C 56.8 °F /  13.8 °C 29.67in /  1004.6hPa South 4.9mph /  7.9km/h 11.0mph /  17.7km/h 55% 0.00in /  0mm meteobridge W/m2
17:39 73.9 °F /  23.3 °C 57.2 °F /  14 °C 29.67in /  1004.6hPa South 8.1mph /  13km/h 14.0mph /  22.5km/h 56% 0.00in /  0mm meteobridge W/m2
17:45 73.4 °F /  23 °C 56.7 °F /  13.7 °C 29.67in /  1004.6hPa South 8.9mph /  14.3km/h 14.0mph /  22.5km/h 56% 0.00in /  0mm meteobridge W/m2
17:51 73.4 °F /  23 °C 57.7 °F /  14.3 °C 29.67in /  1004.6hPa South 10.1mph /  16.3km/h 10.1mph /  16.3km/h 58% 0.00in /  0mm meteobridge W/m2
17:58 73.2 °F /  22.9 °C 57.0 °F /  13.9 °C 29.67in /  1004.6hPa SSW 4.9mph /  7.9km/h 14.0mph /  22.5km/h 57% 0.00in /  0mm meteobridge W/m2
18:04 72.5 °F /  22.5 °C 57.4 °F /  14.1 °C 29.67in /  1004.6hPa South 6.0mph /  9.7km/h 15.0mph /  24.1km/h 59% 0.00in /  0mm meteobridge W/m2
18:10 72.3 °F /  22.4 °C 58.1 °F /  14.5 °C 29.67in /  1004.6hPa SE 15.0mph /  24.1km/h 15.0mph /  24.1km/h 61% 0.00in /  0mm meteobridge W/m2
18:16 72.1 °F /  22.3 °C 57.0 °F /  13.9 °C 29.67in /  1004.6hPa South 10.1mph /  16.3km/h 15.0mph /  24.1km/h 59% 0.00in /  0mm meteobridge W/m2
18:22 72.1 °F /  22.3 °C 57.6 °F /  14.2 °C 29.67in /  1004.6hPa South 4.9mph /  7.9km/h 15.0mph /  24.1km/h 60% 0.00in /  0mm meteobridge W/m2
18:28 72.0 °F /  22.2 °C 57.4 °F /  14.1 °C 29.67in /  1004.6hPa South 4.9mph /  7.9km/h 10.0mph /  16.1km/h 60% 0.00in /  0mm meteobridge W/m2
18:34 71.4 °F /  21.9 °C 56.8 °F /  13.8 °C 29.67in /  1004.6hPa South 13.0mph /  20.9km/h 13.0mph /  20.9km/h 60% 0.00in /  0mm meteobridge W/m2
18:41 71.1 °F /  21.7 °C 55.9 °F /  13.3 °C 29.67in /  1004.6hPa SSE 8.1mph /  13km/h 15.0mph /  24.1km/h 59% 0.00in /  0mm meteobridge W/m2
18:47 70.7 °F /  21.5 °C 56.1 °F /  13.4 °C 29.68in /  1005hPa South 8.1mph /  13km/h 12.0mph /  19.3km/h 60% 0.00in /  0mm meteobridge W/m2
18:53 70.5 °F /  21.4 °C 56.5 °F /  13.6 °C 29.68in /  1005hPa South 2.9mph /  4.7km/h 9.0mph /  14.5km/h 61% 0.00in /  0mm meteobridge W/m2
18:59 70.0 °F /  21.1 °C 55.9 °F /  13.3 °C 29.68in /  1005hPa SSE 8.1mph /  13km/h 13.0mph /  20.9km/h 61% 0.00in /  0mm meteobridge W/m2
19:05 69.6 °F /  20.9 °C 55.0 °F /  12.8 °C 29.69in /  1005.3hPa South 4.0mph /  6.4km/h 4.0mph /  6.4km/h 60% 0.00in /  0mm meteobridge W/m2
19:12 69.6 °F /  20.9 °C 55.0 °F /  12.8 °C 29.69in /  1005.3hPa South 4.0mph /  6.4km/h -999.0mph /  -1607.7km/h 60% 0.00in /  0mm meteobridge W/m2
19:18 69.6 °F /  20.9 °C 55.0 °F /  12.8 °C 29.69in /  1005.3hPa North -999.9mph /  -1609.1km/h -999.0mph /  -1607.7km/h 60% 0.00in /  0mm meteobridge W/m2
Regenstein, Windhoek, Namibia
Compliments of Weather Underground - 2.5 mb